sensor_id;sensor_type;location;lat;lon;timestamp;temperature;humidity
45765;DHT22;31474;45.332;10.230;2023-03-01T00:01:03;6.60;99.90
45765;DHT22;31474;45.332;10.230;2023-03-01T00:03:29;6.60;99.90
45765;DHT22;31474;45.332;10.230;2023-03-01T00:05:55;6.60;99.90
45765;DHT22;31474;45.332;10.230;2023-03-01T00:08:20;6.60;99.90
45765;DHT22;31474;45.332;10.230;2023-03-01T00:10:46;6.60;99.90
45765;DHT22;31474;45.332;10.230;2023-03-01T00:13:12;6.50;99.90
45765;DHT22;31474;45.332;10.230;2023-03-01T00:15:41;6.50;99.90
45765;DHT22;31474;45.332;10.230;2023-03-01T00:18:07;6.50;99.90
45765;DHT22;31474;45.332;10.230;2023-03-01T00:20:34;6.50;99.90
45765;DHT22;31474;45.332;10.230;2023-03-01T00:22:59;6.60;99.90
45765;DHT22;31474;45.332;10.230;2023-03-01T00:25:25;6.50;99.90
45765;DHT22;31474;45.332;10.230;2023-03-01T00:27:51;6.50;99.90
45765;DHT22;31474;45.332;10.230;2023-03-01T00:30:16;6.50;99.90
45765;DHT22;31474;45.332;10.230;2023-03-01T00:32:42;6.40;99.90
45765;DHT22;31474;45.332;10.230;2023-03-01T00:35:08;6.40;99.90
45765;DHT22;31474;45.332;10.230;2023-03-01T00:37:33;6.30;99.90
45765;DHT22;31474;45.332;10.230;2023-03-01T00:39:59;6.30;99.90
45765;DHT22;31474;45.332;10.230;2023-03-01T00:42:24;6.30;99.90
45765;DHT22;31474;45.332;10.230;2023-03-01T00:44:50;6.30;99.90
45765;DHT22;31474;45.332;10.230;2023-03-01T00:47:16;6.30;99.90
45765;DHT22;31474;45.332;10.230;2023-03-01T00:49:41;6.30;99.90
45765;DHT22;31474;45.332;10.230;2023-03-01T00:52:07;6.30;99.90
45765;DHT22;31474;45.332;10.230;2023-03-01T00:54:32;6.30;99.90
45765;DHT22;31474;45.332;10.230;2023-03-01T00:56:59;6.30;99.90
45765;DHT22;31474;45.332;10.230;2023-03-01T00:59:25;6.30;99.90
45765;DHT22;31474;45.332;10.230;2023-03-01T01:01:51;6.20;99.90
45765;DHT22;31474;45.332;10.230;2023-03-01T01:04:16;6.30;99.90
45765;DHT22;31474;45.332;10.230;2023-03-01T01:06:45;6.20;99.90
45765;DHT22;31474;45.332;10.230;2023-03-01T01:09:14;6.10;99.90
45765;DHT22;31474;45.332;10.230;2023-03-01T01:11:43;6.10;99.90
45765;DHT22;31474;45.332;10.230;2023-03-01T01:14:09;6.10;99.90
45765;DHT22;31474;45.332;10.230;2023-03-01T01:16:35;6.10;99.90
45765;DHT22;31474;45.332;10.230;2023-03-01T01:19:01;6.10;99.90
45765;DHT22;31474;45.332;10.230;2023-03-01T01:21:27;6.00;99.90
45765;DHT22;31474;45.332;10.230;2023-03-01T01:23:53;6.00;99.90
45765;DHT22;31474;45.332;10.230;2023-03-01T01:26:22;6.00;99.90
45765;DHT22;31474;45.332;10.230;2023-03-01T01:28:48;5.90;99.90
45765;DHT22;31474;45.332;10.230;2023-03-01T01:31:14;5.80;99.90
45765;DHT22;31474;45.332;10.230;2023-03-01T01:33:39;5.80;99.90
45765;DHT22;31474;45.332;10.230;2023-03-01T01:36:06;5.80;99.90
45765;DHT22;31474;45.332;10.230;2023-03-01T01:38:33;5.70;99.90
45765;DHT22;31474;45.332;10.230;2023-03-01T01:40:59;5.70;99.90
45765;DHT22;31474;45.332;10.230;2023-03-01T01:43:45;5.70;99.90
45765;DHT22;31474;45.332;10.230;2023-03-01T01:46:30;5.70;99.90
45765;DHT22;31474;45.332;10.230;2023-03-01T01:51:57;5.60;99.90
45765;DHT22;31474;45.332;10.230;2023-03-01T01:54:51;5.60;99.90
45765;DHT22;31474;45.332;10.230;2023-03-01T01:57:19;5.60;99.90
45765;DHT22;31474;45.332;10.230;2023-03-01T01:59:50;5.60;99.90
45765;DHT22;31474;45.332;10.230;2023-03-01T02:02:16;5.50;99.90
45765;DHT22;31474;45.332;10.230;2023-03-01T02:04:42;5.50;99.90
45765;DHT22;31474;45.332;10.230;2023-03-01T02:07:15;5.50;99.90
45765;DHT22;31474;45.332;10.230;2023-03-01T02:09:46;5.60;99.90
45765;DHT22;31474;45.332;10.230;2023-03-01T02:12:18;5.50;99.90
45765;DHT22;31474;45.332;10.230;2023-03-01T02:14:44;5.40;99.90
45765;DHT22;31474;45.332;10.230;2023-03-01T02:17:11;5.50;99.90
45765;DHT22;31474;45.332;10.230;2023-03-01T02:22:32;5.50;99.90
45765;DHT22;31474;45.332;10.230;2023-03-01T02:30:32;5.60;99.90
45765;DHT22;31474;45.332;10.230;2023-03-01T02:33:00;5.50;99.90
45765;DHT22;31474;45.332;10.230;2023-03-01T02:35:35;5.50;99.90
45765;DHT22;31474;45.332;10.230;2023-03-01T02:38:05;5.40;99.90
45765;DHT22;31474;45.332;10.230;2023-03-01T02:40:33;5.40;99.90
45765;DHT22;31474;45.332;10.230;2023-03-01T02:42:59;5.30;99.90
45765;DHT22;31474;45.332;10.230;2023-03-01T02:45:26;5.30;99.90
45765;DHT22;31474;45.332;10.230;2023-03-01T02:47:56;5.20;99.90
45765;DHT22;31474;45.332;10.230;2023-03-01T02:51:05;5.20;99.90
45765;DHT22;31474;45.332;10.230;2023-03-01T02:53:39;5.30;99.90
45765;DHT22;31474;45.332;10.230;2023-03-01T02:56:01;5.20;99.90
45765;DHT22;31474;45.332;10.230;2023-03-01T02:58:27;5.20;99.90
45765;DHT22;31474;45.332;10.230;2023-03-01T03:00:53;5.20;99.90
45765;DHT22;31474;45.332;10.230;2023-03-01T03:03:20;5.10;99.90
45765;DHT22;31474;45.332;10.230;2023-03-01T03:05:46;5.10;99.90
45765;DHT22;31474;45.332;10.230;2023-03-01T03:08:13;5.10;99.90
45765;DHT22;31474;45.332;10.230;2023-03-01T03:10:40;5.10;99.90
45765;DHT22;31474;45.332;10.230;2023-03-01T03:13:09;5.10;99.90
45765;DHT22;31474;45.332;10.230;2023-03-01T03:15:35;5.00;99.90
45765;DHT22;31474;45.332;10.230;2023-03-01T03:18:03;5.10;99.90
45765;DHT22;31474;45.332;10.230;2023-03-01T03:20:30;5.00;99.90
45765;DHT22;31474;45.332;10.230;2023-03-01T03:22:57;5.00;99.90
45765;DHT22;31474;45.332;10.230;2023-03-01T03:25:24;5.10;99.90
45765;DHT22;31474;45.332;10.230;2023-03-01T03:27:51;5.20;99.90
45765;DHT22;31474;45.332;10.230;2023-03-01T03:30:23;5.10;99.90
45765;DHT22;31474;45.332;10.230;2023-03-01T03:32:50;5.10;99.90
45765;DHT22;31474;45.332;10.230;2023-03-01T03:35:20;5.00;99.90
45765;DHT22;31474;45.332;10.230;2023-03-01T03:37:46;5.00;99.90
45765;DHT22;31474;45.332;10.230;2023-03-01T03:40:36;5.00;99.90
45765;DHT22;31474;45.332;10.230;2023-03-01T03:43:06;5.00;99.90
45765;DHT22;31474;45.332;10.230;2023-03-01T03:45:32;4.90;99.90
45765;DHT22;31474;45.332;10.230;2023-03-01T03:47:59;4.90;99.90
45765;DHT22;31474;45.332;10.230;2023-03-01T03:50:26;4.90;99.90
45765;DHT22;31474;45.332;10.230;2023-03-01T03:52:51;4.90;99.90
45765;DHT22;31474;45.332;10.230;2023-03-01T03:55:18;4.90;99.90
45765;DHT22;31474;45.332;10.230;2023-03-01T03:57:45;4.90;99.90
45765;DHT22;31474;45.332;10.230;2023-03-01T04:00:18;4.90;99.90
45765;DHT22;31474;45.332;10.230;2023-03-01T04:02:45;4.90;99.90
45765;DHT22;31474;45.332;10.230;2023-03-01T04:05:13;4.80;99.90
45765;DHT22;31474;45.332;10.230;2023-03-01T04:07:41;4.80;99.90
45765;DHT22;31474;45.332;10.230;2023-03-01T04:10:09;4.70;99.90
45765;DHT22;31474;45.332;10.230;2023-03-01T04:12:36;4.70;99.90
45765;DHT22;31474;45.332;10.230;2023-03-01T04:15:03;4.70;99.90
45765;DHT22;31474;45.332;10.230;2023-03-01T04:17:38;4.70;99.90
45765;DHT22;31474;45.332;10.230;2023-03-01T04:20:05;4.70;99.90
45765;DHT22;31474;45.332;10.230;2023-03-01T04:22:32;4.60;99.90
45765;DHT22;31474;45.332;10.230;2023-03-01T04:24:58;4.70;99.90
45765;DHT22;31474;45.332;10.230;2023-03-01T04:27:34;4.70;99.90
45765;DHT22;31474;45.332;10.230;2023-03-01T04:30:00;4.70;99.90
45765;DHT22;31474;45.332;10.230;2023-03-01T04:32:26;4.70;99.90
45765;DHT22;31474;45.332;10.230;2023-03-01T04:34:52;4.60;99.90
45765;DHT22;31474;45.332;10.230;2023-03-01T04:37:17;4.60;99.90
45765;DHT22;31474;45.332;10.230;2023-03-01T04:39:43;4.60;99.90
45765;DHT22;31474;45.332;10.230;2023-03-01T04:42:13;4.60;99.90
45765;DHT22;31474;45.332;10.230;2023-03-01T04:44:38;4.60;99.90
45765;DHT22;31474;45.332;10.230;2023-03-01T04:47:04;4.70;99.90
45765;DHT22;31474;45.332;10.230;2023-03-01T04:49:30;4.70;99.90
45765;DHT22;31474;45.332;10.230;2023-03-01T04:51:56;4.70;99.90
45765;DHT22;31474;45.332;10.230;2023-03-01T04:54:23;4.70;99.90
45765;DHT22;31474;45.332;10.230;2023-03-01T04:56:49;4.80;99.90
45765;DHT22;31474;45.332;10.230;2023-03-01T04:59:14;4.80;99.90
45765;DHT22;31474;45.332;10.230;2023-03-01T05:01:40;4.80;99.90
45765;DHT22;31474;45.332;10.230;2023-03-01T05:04:08;4.80;99.90
45765;DHT22;31474;45.332;10.230;2023-03-01T05:06:38;4.90;99.90
45765;DHT22;31474;45.332;10.230;2023-03-01T05:09:05;4.90;99.90
45765;DHT22;31474;45.332;10.230;2023-03-01T05:11:30;4.90;99.90
45765;DHT22;31474;45.332;10.230;2023-03-01T05:14:01;5.00;99.90
45765;DHT22;31474;45.332;10.230;2023-03-01T05:16:27;5.00;99.90
45765;DHT22;31474;45.332;10.230;2023-03-01T05:18:53;5.00;99.90
45765;DHT22;31474;45.332;10.230;2023-03-01T05:21:21;4.90;99.90
45765;DHT22;31474;45.332;10.230;2023-03-01T05:23:47;5.00;99.90
45765;DHT22;31474;45.332;10.230;2023-03-01T05:26:13;5.00;99.90
45765;DHT22;31474;45.332;10.230;2023-03-01T05:28:39;5.10;99.90
45765;DHT22;31474;45.332;10.230;2023-03-01T05:31:05;5.00;99.90
45765;DHT22;31474;45.332;10.230;2023-03-01T05:33:41;5.00;99.90
45765;DHT22;31474;45.332;10.230;2023-03-01T05:36:08;4.90;99.90
45765;DHT22;31474;45.332;10.230;2023-03-01T05:38:35;4.90;99.90
45765;DHT22;31474;45.332;10.230;2023-03-01T05:41:01;4.80;99.90
45765;DHT22;31474;45.332;10.230;2023-03-01T05:43:31;4.90;99.90
45765;DHT22;31474;45.332;10.230;2023-03-01T05:45:59;5.00;99.90
45765;DHT22;31474;45.332;10.230;2023-03-01T05:48:25;5.00;99.90
45765;DHT22;31474;45.332;10.230;2023-03-01T05:50:51;5.10;99.90
45765;DHT22;31474;45.332;10.230;2023-03-01T05:53:19;5.10;99.90
45765;DHT22;31474;45.332;10.230;2023-03-01T05:55:47;5.20;99.90
45765;DHT22;31474;45.332;10.230;2023-03-01T05:58:15;5.20;99.90
45765;DHT22;31474;45.332;10.230;2023-03-01T06:00:42;5.20;99.90
45765;DHT22;31474;45.332;10.230;2023-03-01T06:03:10;5.20;99.90
45765;DHT22;31474;45.332;10.230;2023-03-01T06:05:36;5.20;99.90
45765;DHT22;31474;45.332;10.230;2023-03-01T06:08:02;5.20;99.90
45765;DHT22;31474;45.332;10.230;2023-03-01T06:10:28;5.10;99.90
45765;DHT22;31474;45.332;10.230;2023-03-01T06:12:54;5.20;99.90
45765;DHT22;31474;45.332;10.230;2023-03-01T06:15:21;5.20;99.90
45765;DHT22;31474;45.332;10.230;2023-03-01T06:17:47;5.20;99.90
45765;DHT22;31474;45.332;10.230;2023-03-01T06:20:14;5.30;99.90
45765;DHT22;31474;45.332;10.230;2023-03-01T06:22:41;5.30;99.90
45765;DHT22;31474;45.332;10.230;2023-03-01T06:25:08;5.40;99.90
45765;DHT22;31474;45.332;10.230;2023-03-01T06:27:34;5.30;99.90
45765;DHT22;31474;45.332;10.230;2023-03-01T06:30:00;5.30;99.90
45765;DHT22;31474;45.332;10.230;2023-03-01T06:32:26;5.30;99.90
45765;DHT22;31474;45.332;10.230;2023-03-01T06:34:52;5.30;99.90
45765;DHT22;31474;45.332;10.230;2023-03-01T06:37:18;5.30;99.90
45765;DHT22;31474;45.332;10.230;2023-03-01T06:39:43;5.40;99.90
45765;DHT22;31474;45.332;10.230;2023-03-01T06:42:09;5.40;99.90
45765;DHT22;31474;45.332;10.230;2023-03-01T06:44:37;5.40;99.90
45765;DHT22;31474;45.332;10.230;2023-03-01T06:47:03;5.50;99.90
45765;DHT22;31474;45.332;10.230;2023-03-01T06:49:29;5.50;99.90
45765;DHT22;31474;45.332;10.230;2023-03-01T06:51:56;5.60;99.90
45765;DHT22;31474;45.332;10.230;2023-03-01T06:54:21;5.60;99.90
45765;DHT22;31474;45.332;10.230;2023-03-01T06:56:48;5.60;99.90
45765;DHT22;31474;45.332;10.230;2023-03-01T06:59:14;5.60;99.90
45765;DHT22;31474;45.332;10.230;2023-03-01T07:01:40;5.60;99.90
45765;DHT22;31474;45.332;10.230;2023-03-01T07:04:05;5.60;99.90
45765;DHT22;31474;45.332;10.230;2023-03-01T07:06:31;5.70;99.90
45765;DHT22;31474;45.332;10.230;2023-03-01T07:08:57;5.70;99.90
45765;DHT22;31474;45.332;10.230;2023-03-01T07:11:22;5.70;99.90
45765;DHT22;31474;45.332;10.230;2023-03-01T07:13:48;5.70;99.90
45765;DHT22;31474;45.332;10.230;2023-03-01T07:16:14;5.70;99.90
45765;DHT22;31474;45.332;10.230;2023-03-01T07:18:40;5.80;99.90
45765;DHT22;31474;45.332;10.230;2023-03-01T07:21:08;5.80;99.90
45765;DHT22;31474;45.332;10.230;2023-03-01T07:23:34;5.90;99.90
45765;DHT22;31474;45.332;10.230;2023-03-01T07:26:00;6.00;99.90
45765;DHT22;31474;45.332;10.230;2023-03-01T07:28:26;6.10;99.90
45765;DHT22;31474;45.332;10.230;2023-03-01T07:30:53;6.10;99.90
45765;DHT22;31474;45.332;10.230;2023-03-01T07:33:18;6.20;99.90
45765;DHT22;31474;45.332;10.230;2023-03-01T07:35:44;6.30;99.90
45765;DHT22;31474;45.332;10.230;2023-03-01T07:38:10;6.30;99.90
45765;DHT22;31474;45.332;10.230;2023-03-01T07:40:35;6.40;99.90
45765;DHT22;31474;45.332;10.230;2023-03-01T07:43:01;6.50;99.90
45765;DHT22;31474;45.332;10.230;2023-03-01T07:45:27;6.60;99.90
45765;DHT22;31474;45.332;10.230;2023-03-01T07:47:53;6.60;99.90
45765;DHT22;31474;45.332;10.230;2023-03-01T07:50:20;6.70;99.90
45765;DHT22;31474;45.332;10.230;2023-03-01T07:52:46;6.90;99.90
45765;DHT22;31474;45.332;10.230;2023-03-01T07:55:12;7.00;99.90
45765;DHT22;31474;45.332;10.230;2023-03-01T07:57:38;7.20;99.90
45765;DHT22;31474;45.332;10.230;2023-03-01T08:00:05;7.40;99.90
45765;DHT22;31474;45.332;10.230;2023-03-01T08:02:32;7.60;99.90
45765;DHT22;31474;45.332;10.230;2023-03-01T08:04:57;7.70;99.90
45765;DHT22;31474;45.332;10.230;2023-03-01T08:07:23;7.80;99.90
45765;DHT22;31474;45.332;10.230;2023-03-01T08:09:48;7.80;99.90
45765;DHT22;31474;45.332;10.230;2023-03-01T08:12:14;7.70;99.90
45765;DHT22;31474;45.332;10.230;2023-03-01T08:14:41;7.70;99.90
45765;DHT22;31474;45.332;10.230;2023-03-01T08:17:07;7.60;99.90
45765;DHT22;31474;45.332;10.230;2023-03-01T08:19:33;7.60;99.90
45765;DHT22;31474;45.332;10.230;2023-03-01T08:22:03;7.70;99.90
45765;DHT22;31474;45.332;10.230;2023-03-01T08:24:29;7.70;99.90
45765;DHT22;31474;45.332;10.230;2023-03-01T08:26:54;7.70;99.90
45765;DHT22;31474;45.332;10.230;2023-03-01T08:29:21;7.70;99.90
45765;DHT22;31474;45.332;10.230;2023-03-01T08:31:47;7.70;99.90
45765;DHT22;31474;45.332;10.230;2023-03-01T08:34:15;7.70;99.90
45765;DHT22;31474;45.332;10.230;2023-03-01T08:36:43;7.70;99.90
45765;DHT22;31474;45.332;10.230;2023-03-01T08:39:11;7.80;99.90
45765;DHT22;31474;45.332;10.230;2023-03-01T08:41:37;7.90;99.90
45765;DHT22;31474;45.332;10.230;2023-03-01T08:44:04;7.90;99.90
45765;DHT22;31474;45.332;10.230;2023-03-01T08:46:32;8.00;99.90
45765;DHT22;31474;45.332;10.230;2023-03-01T08:48:58;8.00;99.90
45765;DHT22;31474;45.332;10.230;2023-03-01T08:51:25;8.10;99.90
45765;DHT22;31474;45.332;10.230;2023-03-01T08:53:51;8.10;99.90
45765;DHT22;31474;45.332;10.230;2023-03-01T08:56:18;8.10;99.90
45765;DHT22;31474;45.332;10.230;2023-03-01T08:58:45;8.20;99.90
45765;DHT22;31474;45.332;10.230;2023-03-01T09:01:14;8.30;99.90
45765;DHT22;31474;45.332;10.230;2023-03-01T09:03:40;8.30;99.90
45765;DHT22;31474;45.332;10.230;2023-03-01T09:06:07;8.40;99.90
45765;DHT22;31474;45.332;10.230;2023-03-01T09:08:41;8.30;99.90
45765;DHT22;31474;45.332;10.230;2023-03-01T09:11:09;8.40;99.90
45765;DHT22;31474;45.332;10.230;2023-03-01T09:13:35;8.50;99.90
45765;DHT22;31474;45.332;10.230;2023-03-01T09:16:03;8.50;99.90
45765;DHT22;31474;45.332;10.230;2023-03-01T09:18:30;8.60;99.90
45765;DHT22;31474;45.332;10.230;2023-03-01T09:21:12;8.60;99.90
45765;DHT22;31474;45.332;10.230;2023-03-01T09:23:46;8.50;99.90
45765;DHT22;31474;45.332;10.230;2023-03-01T09:26:17;8.50;99.90
45765;DHT22;31474;45.332;10.230;2023-03-01T09:28:45;8.60;99.90
45765;DHT22;31474;45.332;10.230;2023-03-01T09:31:12;8.80;99.90
45765;DHT22;31474;45.332;10.230;2023-03-01T09:33:39;9.00;99.90
45765;DHT22;31474;45.332;10.230;2023-03-01T09:36:10;9.20;99.90
45765;DHT22;31474;45.332;10.230;2023-03-01T09:38:36;9.30;99.90
45765;DHT22;31474;45.332;10.230;2023-03-01T09:41:08;9.40;99.90
45765;DHT22;31474;45.332;10.230;2023-03-01T09:43:48;9.40;99.90
45765;DHT22;31474;45.332;10.230;2023-03-01T09:46:21;9.30;99.90
45765;DHT22;31474;45.332;10.230;2023-03-01T09:49:05;9.30;99.90
45765;DHT22;31474;45.332;10.230;2023-03-01T09:51:35;9.30;99.90
45765;DHT22;31474;45.332;10.230;2023-03-01T09:54:05;9.20;99.90
45765;DHT22;31474;45.332;10.230;2023-03-01T09:57:03;9.20;99.90
45765;DHT22;31474;45.332;10.230;2023-03-01T09:59:38;9.20;99.90
45765;DHT22;31474;45.332;10.230;2023-03-01T10:05:25;9.20;99.90
45765;DHT22;31474;45.332;10.230;2023-03-01T10:10:38;9.20;99.90
45765;DHT22;31474;45.332;10.230;2023-03-01T10:13:37;9.30;99.90
45765;DHT22;31474;45.332;10.230;2023-03-01T10:16:14;9.40;99.90
45765;DHT22;31474;45.332;10.230;2023-03-01T10:18:41;9.60;99.90
45765;DHT22;31474;45.332;10.230;2023-03-01T10:21:19;9.70;99.90
45765;DHT22;31474;45.332;10.230;2023-03-01T10:23:46;9.70;99.90
45765;DHT22;31474;45.332;10.230;2023-03-01T10:26:37;9.80;99.90
45765;DHT22;31474;45.332;10.230;2023-03-01T10:34:08;9.70;99.70
45765;DHT22;31474;45.332;10.230;2023-03-01T10:36:34;9.70;99.90
45765;DHT22;31474;45.332;10.230;2023-03-01T10:39:11;9.70;99.90
45765;DHT22;31474;45.332;10.230;2023-03-01T10:44:54;9.60;99.90
45765;DHT22;31474;45.332;10.230;2023-03-01T10:47:22;9.60;99.90
45765;DHT22;31474;45.332;10.230;2023-03-01T10:49:57;9.60;99.90
45765;DHT22;31474;45.332;10.230;2023-03-01T10:52:29;9.60;99.90
45765;DHT22;31474;45.332;10.230;2023-03-01T10:55:18;9.60;99.90
45765;DHT22;31474;45.332;10.230;2023-03-01T10:57:46;9.70;99.90
45765;DHT22;31474;45.332;10.230;2023-03-01T11:05:26;9.70;99.90
45765;DHT22;31474;45.332;10.230;2023-03-01T11:07:58;9.70;99.90
45765;DHT22;31474;45.332;10.230;2023-03-01T11:12:51;9.70;99.90
45765;DHT22;31474;45.332;10.230;2023-03-01T11:15:28;9.70;99.90
45765;DHT22;31474;45.332;10.230;2023-03-01T11:17:54;9.70;99.90
45765;DHT22;31474;45.332;10.230;2023-03-01T11:20:31;9.70;99.90
45765;DHT22;31474;45.332;10.230;2023-03-01T11:23:11;9.70;99.90
45765;DHT22;31474;45.332;10.230;2023-03-01T11:25:54;9.80;99.90
45765;DHT22;31474;45.332;10.230;2023-03-01T11:28:21;9.80;99.90
45765;DHT22;31474;45.332;10.230;2023-03-01T11:30:58;9.70;99.90
45765;DHT22;31474;45.332;10.230;2023-03-01T11:33:49;9.70;99.90
45765;DHT22;31474;45.332;10.230;2023-03-01T11:36:32;9.70;99.90
45765;DHT22;31474;45.332;10.230;2023-03-01T11:41:52;9.80;99.90
45765;DHT22;31474;45.332;10.230;2023-03-01T11:44:26;9.80;99.90
45765;DHT22;31474;45.332;10.230;2023-03-01T11:49:35;9.80;99.90
45765;DHT22;31474;45.332;10.230;2023-03-01T12:08:52;9.90;99.90
45765;DHT22;31474;45.332;10.230;2023-03-01T12:24:36;9.90;99.90
45765;DHT22;31474;45.332;10.230;2023-03-01T12:29:48;9.90;99.90
45765;DHT22;31474;45.332;10.230;2023-03-01T12:35:00;9.90;99.90
45765;DHT22;31474;45.332;10.230;2023-03-01T12:37:51;9.90;99.90
45765;DHT22;31474;45.332;10.230;2023-03-01T12:43:36;10.00;99.90
45765;DHT22;31474;45.332;10.230;2023-03-01T12:46:23;10.00;99.90
45765;DHT22;31474;45.332;10.230;2023-03-01T12:51:31;10.10;99.80
45765;DHT22;31474;45.332;10.230;2023-03-01T12:54:05;10.10;99.90
45765;DHT22;31474;45.332;10.230;2023-03-01T12:56:34;10.10;99.80
45765;DHT22;31474;45.332;10.230;2023-03-01T12:59:39;10.10;99.90
45765;DHT22;31474;45.332;10.230;2023-03-01T13:07:44;10.10;99.60
45765;DHT22;31474;45.332;10.230;2023-03-01T13:10:28;10.10;99.70
45765;DHT22;31474;45.332;10.230;2023-03-01T13:17:56;10.10;99.60
45765;DHT22;31474;45.332;10.230;2023-03-01T13:20:52;10.00;99.80
45765;DHT22;31474;45.332;10.230;2023-03-01T13:28:53;10.00;99.30
45765;DHT22;31474;45.332;10.230;2023-03-01T13:33:53;10.00;99.90
45765;DHT22;31474;45.332;10.230;2023-03-01T13:39:03;10.00;99.90
45765;DHT22;31474;45.332;10.230;2023-03-01T13:46:51;9.90;99.90
45765;DHT22;31474;45.332;10.230;2023-03-01T13:49:25;9.90;99.90
45765;DHT22;31474;45.332;10.230;2023-03-01T13:51:52;10.00;99.90
45765;DHT22;31474;45.332;10.230;2023-03-01T13:54:29;10.00;99.90
45765;DHT22;31474;45.332;10.230;2023-03-01T13:56:57;10.00;99.90
45765;DHT22;31474;45.332;10.230;2023-03-01T13:59:24;10.00;99.90
45765;DHT22;31474;45.332;10.230;2023-03-01T14:06:51;10.10;99.90
45765;DHT22;31474;45.332;10.230;2023-03-01T14:09:24;10.10;99.90
45765;DHT22;31474;45.332;10.230;2023-03-01T14:20:17;10.00;99.90
45765;DHT22;31474;45.332;10.230;2023-03-01T14:22:44;10.00;99.90
45765;DHT22;31474;45.332;10.230;2023-03-01T14:27:57;9.90;99.90
45765;DHT22;31474;45.332;10.230;2023-03-01T14:30:24;9.90;99.90
45765;DHT22;31474;45.332;10.230;2023-03-01T14:32:58;9.90;99.90
45765;DHT22;31474;45.332;10.230;2023-03-01T14:35:31;9.90;99.90
45765;DHT22;31474;45.332;10.230;2023-03-01T14:37:57;9.90;99.90
45765;DHT22;31474;45.332;10.230;2023-03-01T14:40:35;9.90;99.90
45765;DHT22;31474;45.332;10.230;2023-03-01T14:43:13;9.80;99.90
45765;DHT22;31474;45.332;10.230;2023-03-01T14:45:47;9.70;99.90
45765;DHT22;31474;45.332;10.230;2023-03-01T14:48:13;9.60;99.90
45765;DHT22;31474;45.332;10.230;2023-03-01T14:50:42;9.60;99.90
45765;DHT22;31474;45.332;10.230;2023-03-01T14:53:17;9.50;99.90
45765;DHT22;31474;45.332;10.230;2023-03-01T14:55:50;9.50;99.90
45765;DHT22;31474;45.332;10.230;2023-03-01T14:58:18;9.40;99.90
45765;DHT22;31474;45.332;10.230;2023-03-01T15:01:12;9.20;99.90
45765;DHT22;31474;45.332;10.230;2023-03-01T15:03:47;9.10;99.90
45765;DHT22;31474;45.332;10.230;2023-03-01T15:06:21;8.80;99.90
45765;DHT22;31474;45.332;10.230;2023-03-01T15:08:50;8.70;99.90
45765;DHT22;31474;45.332;10.230;2023-03-01T15:13:50;8.40;99.90
45765;DHT22;31474;45.332;10.230;2023-03-01T15:16:30;8.20;99.90
45765;DHT22;31474;45.332;10.230;2023-03-01T15:19:05;8.00;99.90
45765;DHT22;31474;45.332;10.230;2023-03-01T15:26:55;7.90;99.90
45765;DHT22;31474;45.332;10.230;2023-03-01T15:29:25;7.90;99.90
45765;DHT22;31474;45.332;10.230;2023-03-01T15:32:45;7.80;99.90
45765;DHT22;31474;45.332;10.230;2023-03-01T15:34:45;7.80;99.90
45765;DHT22;31474;45.332;10.230;2023-03-01T15:40:17;7.80;99.90
45765;DHT22;31474;45.332;10.230;2023-03-01T15:42:43;7.80;99.90
45765;DHT22;31474;45.332;10.230;2023-03-01T15:45:25;7.80;99.90
45765;DHT22;31474;45.332;10.230;2023-03-01T15:47:57;7.80;99.90
45765;DHT22;31474;45.332;10.230;2023-03-01T15:50:29;7.80;99.90
45765;DHT22;31474;45.332;10.230;2023-03-01T15:52:56;7.70;99.90
45765;DHT22;31474;45.332;10.230;2023-03-01T15:55:28;7.70;99.90
45765;DHT22;31474;45.332;10.230;2023-03-01T15:58:10;7.70;99.90
45765;DHT22;31474;45.332;10.230;2023-03-01T16:00:37;7.70;99.90
45765;DHT22;31474;45.332;10.230;2023-03-01T16:03:04;7.80;99.90
45765;DHT22;31474;45.332;10.230;2023-03-01T16:05:34;7.70;99.90
45765;DHT22;31474;45.332;10.230;2023-03-01T16:08:00;7.60;99.90
45765;DHT22;31474;45.332;10.230;2023-03-01T16:10:27;7.50;99.90
45765;DHT22;31474;45.332;10.230;2023-03-01T16:12:53;7.50;99.90
45765;DHT22;31474;45.332;10.230;2023-03-01T16:15:38;7.50;99.90
45765;DHT22;31474;45.332;10.230;2023-03-01T16:18:05;7.50;99.90
45765;DHT22;31474;45.332;10.230;2023-03-01T16:20:32;7.50;99.90
45765;DHT22;31474;45.332;10.230;2023-03-01T16:22:59;7.50;99.90
45765;DHT22;31474;45.332;10.230;2023-03-01T16:25:28;7.40;99.90
45765;DHT22;31474;45.332;10.230;2023-03-01T16:27:54;7.30;99.90
45765;DHT22;31474;45.332;10.230;2023-03-01T16:30:22;7.30;99.90
45765;DHT22;31474;45.332;10.230;2023-03-01T16:32:49;7.20;99.90
45765;DHT22;31474;45.332;10.230;2023-03-01T16:35:18;7.20;99.90
45765;DHT22;31474;45.332;10.230;2023-03-01T16:37:44;7.20;99.90
45765;DHT22;31474;45.332;10.230;2023-03-01T16:40:23;7.10;99.90
45765;DHT22;31474;45.332;10.230;2023-03-01T16:42:49;7.10;99.90
45765;DHT22;31474;45.332;10.230;2023-03-01T16:45:15;7.10;99.90
45765;DHT22;31474;45.332;10.230;2023-03-01T16:47:41;7.10;99.90
45765;DHT22;31474;45.332;10.230;2023-03-01T16:50:07;7.00;99.90
45765;DHT22;31474;45.332;10.230;2023-03-01T16:52:34;7.00;99.90
45765;DHT22;31474;45.332;10.230;2023-03-01T16:55:00;7.00;99.90
45765;DHT22;31474;45.332;10.230;2023-03-01T16:57:25;7.00;99.90
45765;DHT22;31474;45.332;10.230;2023-03-01T16:59:52;7.00;99.90
45765;DHT22;31474;45.332;10.230;2023-03-01T17:02:20;6.90;99.90
45765;DHT22;31474;45.332;10.230;2023-03-01T17:04:52;7.00;99.90
45765;DHT22;31474;45.332;10.230;2023-03-01T17:07:18;7.00;99.90
45765;DHT22;31474;45.332;10.230;2023-03-01T17:09:44;7.10;99.90
45765;DHT22;31474;45.332;10.230;2023-03-01T17:12:12;7.10;99.90
45765;DHT22;31474;45.332;10.230;2023-03-01T17:14:38;7.10;99.90
45765;DHT22;31474;45.332;10.230;2023-03-01T17:17:07;7.20;99.90
45765;DHT22;31474;45.332;10.230;2023-03-01T17:19:32;7.20;99.90
45765;DHT22;31474;45.332;10.230;2023-03-01T17:21:59;7.20;99.90
45765;DHT22;31474;45.332;10.230;2023-03-01T17:24:25;7.10;99.90
45765;DHT22;31474;45.332;10.230;2023-03-01T17:26:51;7.20;99.90
45765;DHT22;31474;45.332;10.230;2023-03-01T17:29:16;7.20;99.90
45765;DHT22;31474;45.332;10.230;2023-03-01T17:31:43;7.20;99.90
45765;DHT22;31474;45.332;10.230;2023-03-01T17:34:09;7.10;99.90
45765;DHT22;31474;45.332;10.230;2023-03-01T17:36:34;7.10;99.90
45765;DHT22;31474;45.332;10.230;2023-03-01T17:39:11;7.20;99.90
45765;DHT22;31474;45.332;10.230;2023-03-01T17:41:36;7.10;99.90
45765;DHT22;31474;45.332;10.230;2023-03-01T17:44:02;7.10;99.90
45765;DHT22;31474;45.332;10.230;2023-03-01T17:46:28;7.00;99.90
45765;DHT22;31474;45.332;10.230;2023-03-01T17:48:54;7.00;99.90
45765;DHT22;31474;45.332;10.230;2023-03-01T17:51:19;7.00;99.90
45765;DHT22;31474;45.332;10.230;2023-03-01T17:53:45;7.00;99.90
45765;DHT22;31474;45.332;10.230;2023-03-01T17:56:11;7.00;99.90